NEW EXCHEQUER-LK MCCLURE (EXC)

Elevation: 879' · MERCED R basin · Operator: Merced Irrigation District

Provisional data, subject to change.
Query executed Friday at 14:07:07   clock

Select a sensor type for a plot of data.
Note: Reservoir Flows are daily averages.

Earlier

Date RES ELE    STORAGE    RES CHG    TOC STO    ABV TOC    OUTFLOW    INFLOW    PPT INC    TEMP MN    TEMP MX    TEMP AV   
 FEET   AF   AF   AF   AF   CFS   CFS   INCHES   DEG F   DEG F   DEG F  
09/25/2014 633.62 127490 -- 881160 -753670 724 0 0.00 -- -- --
09/26/2014 632.70 126020 -- 875420 -749400 710 0 0.00 -- -- --
09/27/2014 631.98 124870 -- 869680 -- 545 0 0.00 -- -- --
09/28/2014 631.37 123890 -- 863940 -740050 464 0 0.01 -- -- --
09/29/2014 630.68 122790 -- 858210 -735420 542 0 0.00 -- -- --
09/30/2014 629.94 121610 -- 852470 -730860 565 0 0.00 -- -- --
10/01/2014 629.21 120520 -- 846730 -726210 549 0 0.00 -- -- --
10/02/2014 628.57 119560 -- 840990 -721430 485 1 0.00 -- -- --
10/03/2014 627.92 118580 -- 835260 -- 492 1 0.00 -- -- --
10/04/2014 627.20 117500 -- 829520 -712020 506 0 0.00 -- -- --
10/05/2014 626.63 116650 -- 823780 -707130 425 0 0.00 -- -- --
10/06/2014 625.97 115660 -990 818040 -702380 480 0 0.00 -- -- --
10/07/2014 625.48 114920 -785 812300 -697380 353 0 0.00 -- -- --
10/08/2014 624.98 114170 -- 806570 -692400 329 0 0.00 -- -- --
10/09/2014 624.61 113620 -- 800830 -687210 249 0 0.00 -- -- --
10/10/2014 624.08 112820 -- 795090 -682270 414 13 0.00 -- -- --
10/11/2014 623.56 112040 -- 789350 -677310 371 0 0.00 -- -- --
10/12/2014 622.96 111140 -- 783616 -672480 436 0 0.00 -- -- --
10/13/2014 622.43 110345 -- 777879 -667530 381 0 0.00 -- -- --
10/14/2014 621.62 109130 -- 772141 -- 525 0 0.00 -- -- --
10/15/2014 621.60 109100 -- 766403 -657303 r 30 15 0.00 -- -- --
10/16/2014 621.48 108920 -- 760666 -651746 42 0 0.00 -- -- --
10/17/2014 621.45 108875 -- 754928 -646053 26 3 0.00 -- -- --
10/18/2014 620.88 108020 -- 749190 -641170 374 0 0.00 -- -- --
10/19/2014 620.30 107150 -- 743452 -636302 397 0 0.00 -- -- --
10/20/2014 620.26 107090 -- 737715 -630625 48 18 0.00 -- -- --
10/21/2014 619.58 106112 -- 731977 -625865 453 0 0.00 -- -- --
10/22/2014 618.69 104866 -- 726239 -621373 592 0 0.00 -- -- --
10/23/2014 617.58 103452 -- 720502 -617050 658 0 0.00 -- -- --
10/24/2014 -- -- -- -- -- -- -- -- -- -- --

Later | Latest

Warning! This data is preliminary and subject to revision.

Show EXC Map | Plot EXC Data | 1 Month EXC Data | Real-Time EXC Data | EXC Info